Time;durP1;ratioP1;P1;durP2;ratioP2;P2;SDS_P1;SDS_P2;PMS_P1;PMS_P2;Temp;Humidity;BMP_temperature;BMP_pressure;BME280_temperature;BME280_humidity;BME280_pressure;Samples;Min_cycle;Max_cycle;Signal;HPM_P1;HPM_P2
2022/07/06 14:29:28;;;;;;;4.68;4.28;;;41.50;27.10;;;33.28;22.28;95995.59;5059334;28;20981;-50
2022/07/06 14:32:00;;;;;;;4.50;4.00;;;40.80;24.80;;;33.71;22.50;95995.34;5029935;28;20033;-56
2022/07/06 14:34:26;;;;;;;4.18;3.88;;;41.30;23.50;;;33.92;22.04;96004.69;5043321;28;20085;-55
2022/07/06 14:36:52;;;;;;;6.22;4.03;;;41.80;22.60;;;34.26;21.66;96000.06;5046200;28;20124;-56
2022/07/06 14:39:21;;;;;;;6.63;5.03;;;42.50;21.80;;;34.64;21.40;96000.09;5028679;28;20024;-57
2022/07/06 14:41:47;;;;;;;4.10;3.80;;;43.10;21.00;;;34.80;20.51;95996.00;5025120;28;20033;-52
2022/07/06 14:44:16;;;;;;;5.45;4.72;;;43.80;20.40;;;34.85;20.17;95992.75;5025952;28;20143;-57
2022/07/06 14:46:41;;;;;;;6.53;4.70;;;44.30;19.60;;;34.72;20.71;95998.03;5025603;28;20025;-56
2022/07/06 14:49:13;;;;;;;5.45;4.35;;;44.90;19.20;;;34.93;20.76;95999.78;5027855;28;20029;-56
2022/07/06 14:51:43;;;;;;;6.45;4.85;;;45.40;18.70;;;35.13;20.55;95994.41;5026598;28;20017;-56
2022/07/06 14:54:08;;;;;;;6.15;5.65;;;45.90;18.30;;;35.71;19.55;95997.22;5025887;28;20021;-57
2022/07/06 14:56:38;;;;;;;5.95;5.38;;;46.40;18.10;;;35.66;19.84;95996.50;5024788;28;20021;-51
2022/07/06 14:59:04;;;;;;;5.83;5.43;;;47.00;17.70;;;35.77;19.12;95993.53;5030106;28;20031;-57
2022/07/06 15:01:32;;;;;;;6.28;5.68;;;47.50;17.30;;;35.53;19.50;95978.84;5030514;28;20021;-57
2022/07/06 15:03:58;;;;;;;5.97;5.68;;;48.00;16.80;;;36.00;19.34;95986.44;5031789;28;20031;-53
2022/07/06 15:06:27;;;;;;;6.40;6.00;;;48.30;16.60;;;35.54;18.91;95983.22;5026840;28;20422;-57
2022/07/06 15:08:52;;;;;;;5.78;5.47;;;48.70;16.30;;;35.50;18.55;95982.44;5032073;28;20028;-57
2022/07/06 15:11:18;;;;;;;5.97;5.57;;;48.90;16.30;;;35.52;18.96;95985.56;5027625;28;20017;-57
2022/07/06 15:13:44;;;;;;;5.38;5.07;;;49.20;15.50;;;35.81;18.15;95977.63;5032662;28;20017;-58
2022/07/06 15:16:10;;;;;;;6.40;6.00;;;49.50;15.20;;;35.41;17.81;95977.44;5029095;28;20510;-58
2022/07/06 15:18:36;;;;;;;7.22;6.70;;;49.80;14.90;;;36.20;18.41;95970.69;5030422;28;20070;-55
2022/07/06 15:21:02;;;;;;;6.35;5.70;;;50.20;14.90;;;36.18;18.65;95972.31;5030351;28;20044;-56
2022/07/06 15:23:28;;;;;;;5.95;5.65;;;50.70;14.70;;;35.98;18.69;95970.25;5025540;28;20036;-54
2022/07/06 15:26:03;;;;;;;7.15;6.75;;;51.10;14.40;;;36.06;18.54;95960.63;5026530;28;20116;-57
2022/07/06 15:28:29;;;;;;;6.43;6.07;;;51.60;14.20;;;35.81;19.10;95960.22;5029427;28;20563;-51
2022/07/06 15:31:00;;;;;;;7.63;7.00;;;51.90;13.90;;;35.81;18.95;95965.78;5032405;28;20032;-57
2022/07/06 15:33:26;;;;;;;8.55;7.22;;;52.20;13.70;;;35.83;18.95;95961.38;5026350;28;20024;-57
2022/07/06 15:35:52;;;;;;;8.52;8.02;;;52.50;13.50;;;35.62;18.68;95964.50;5009102;28;20471;-55
2022/07/06 15:38:19;;;;;;;8.73;8.13;;;52.80;13.20;;;36.07;17.72;95962.22;5051942;23;20060;-52
2022/07/06 15:41:08;;;;;;;8.75;8.13;;;53.30;13.00;;;36.58;18.11;95959.34;5032229;28;20021;-53
2022/07/06 15:43:34;;;;;;;11.85;11.05;;;53.90;13.00;;;36.97;17.25;95954.97;5007938;28;20127;-51
2022/07/06 15:46:05;;;;;;;10.73;9.98;;;54.40;12.70;;;37.08;17.27;95961.13;5032964;28;20566;-51
2022/07/06 15:48:32;;;;;;;11.40;10.77;;;54.80;12.40;;;37.02;17.40;95960.06;5048417;28;20063;-50
2022/07/06 15:51:00;;;;;;;12.48;11.77;;;55.00;12.80;;;36.88;16.91;95955.53;5051724;28;20040;-55
2022/07/06 15:53:26;;;;;;;13.57;12.68;;;55.20;12.10;;;37.17;17.18;95955.78;5051524;28;20081;-52
2022/07/06 15:55:57;;;;;;;13.05;12.35;;;55.20;12.00;;;37.64;16.57;95955.53;5067857;28;20074;-52
2022/07/06 15:58:27;;;;;;;12.57;11.88;;;55.20;11.90;;;37.63;16.02;95950.38;5067871;28;20429;-48
2022/07/06 16:00:53;;;;;;;11.60;10.88;;;55.50;11.80;;;37.73;16.29;95952.13;5068060;28;20024;-50
2022/07/06 16:03:20;;;;;;;11.77;10.90;;;55.60;11.70;;;37.98;16.74;95951.53;5041204;28;20047;-49
2022/07/06 16:05:51;;;;;;;12.07;11.38;;;55.70;11.60;;;37.73;17.08;95946.56;5029249;28;20021;-50
2022/07/06 16:08:17;;;;;;;11.15;10.40;;;55.60;11.70;;;37.76;16.68;95937.38;5031409;28;20036;-52
2022/07/06 16:10:49;;;;;;;10.00;9.40;;;55.30;11.70;;;37.54;17.61;95934.31;5032291;28;20032;-49
2022/07/06 16:13:14;;;;;;;9.65;8.98;;;55.10;11.70;;;37.37;17.02;95935.50;5030301;28;20028;-48
2022/07/06 16:15:43;;;;;;;9.60;9.00;;;54.90;11.60;;;37.41;17.17;95934.19;5043084;28;20493;-51
2022/07/06 16:18:09;;;;;;;11.20;10.43;;;54.80;11.60;;;37.15;17.70;95930.41;5047771;28;20506;-50
2022/07/06 16:20:35;;;;;;;8.48;7.90;;;54.70;11.80;;;36.65;18.46;95933.44;5050950;28;20266;-54
2022/07/06 16:23:01;;;;;;;8.77;8.02;;;54.50;11.80;;;36.61;18.33;95941.84;5035633;28;20029;-51
2022/07/06 16:25:33;;;;;;;7.65;7.15;;;54.40;11.80;;;36.50;17.72;95942.03;5044607;28;20417;-47
2022/07/06 16:27:59;;;;;;;8.05;7.55;;;54.00;11.90;;;36.00;18.64;95939.34;5023947;28;20045;-54
2022/07/06 16:30:26;;;;;;;8.43;7.63;;;53.70;11.80;;;35.84;18.98;95935.22;5049449;28;20035;-48
2022/07/06 16:32:57;;;;;;;8.35;7.85;;;53.60;11.90;;;36.20;19.78;95933.84;5051066;28;20024;-49
2022/07/06 16:35:23;;;;;;;8.35;7.72;;;53.70;12.00;;;36.17;18.99;95937.47;5023103;28;20029;-48
2022/07/06 16:37:50;;;;;;;9.52;8.93;;;53.70;12.00;;;36.41;18.78;95927.91;5046790;28;20040;-48
2022/07/06 16:40:17;;;;;;;8.75;8.25;;;53.70;12.00;;;35.58;19.30;95933.31;5049863;28;20111;-49
2022/07/06 16:42:46;;;;;;;9.15;8.50;;;53.80;12.00;;;35.90;18.24;95944.63;5060992;28;20055;-52
2022/07/06 16:45:12;;;;;;;9.52;8.82;;;53.80;11.80;;;35.34;18.97;95929.66;5043811;28;20041;-51
2022/07/06 16:47:38;;;;;;;7.70;7.13;;;53.70;11.80;;;35.32;19.86;95935.63;5046159;28;20036;-50
2022/07/06 16:50:08;;;;;;;7.07;6.63;;;53.50;11.90;;;35.37;19.54;95935.16;5049250;28;20016;-50
2022/07/06 16:52:36;;;;;;;;;;;53.30;12.10;;;35.14;19.81;95938.66;5045876;28;20032;-48
2022/07/06 16:55:06;;;;;;;7.40;6.90;;;52.90;12.30;;;34.64;20.88;95938.47;5048901;28;19908;-51
2022/07/06 16:57:34;;;;;;;6.57;6.10;;;52.60;12.30;;;34.53;20.83;95938.59;5059537;28;20052;-49
2022/07/06 17:00:05;;;;;;;6.93;6.22;;;52.00;12.40;;;34.69;21.20;95938.00;5033509;28;20042;-53
2022/07/06 17:02:31;;;;;;;6.00;5.53;;;51.70;12.70;;;34.49;21.07;95930.31;5036513;28;20387;-53
2022/07/06 17:05:06;;;;;;;5.03;4.40;;;51.20;12.80;;;34.04;21.52;95946.97;5051102;28;20028;-52
2022/07/06 17:07:32;;;;;;;4.32;4.03;;;50.10;13.10;;;33.93;21.27;95948.22;5047359;28;20039;-54
2022/07/06 17:10:01;;;;;;;6.78;3.75;;;48.90;13.40;;;33.56;21.77;95936.66;5047272;28;20109;-55
2022/07/06 17:12:28;;;;;;;3.38;3.08;;;47.60;14.30;;;32.80;22.68;95942.97;5037787;28;20032;-52
2022/07/06 17:14:57;;;;;;;4.55;2.95;;;46.80;14.20;;;32.01;24.17;95943.94;5049301;28;20013;-46
2022/07/06 17:17:27;;;;;;;2.55;2.35;;;46.20;14.40;;;31.56;24.57;95948.28;5043768;28;20028;-47
2022/07/06 17:20:03;;;;;;;2.78;2.50;;;44.70;14.80;;;31.02;24.59;95944.59;5043075;28;20035;-47
2022/07/06 17:22:31;;;;;;;3.38;2.50;;;42.90;15.70;;;30.64;25.11;95944.03;5013151;28;20029;-53
2022/07/06 17:24:57;;;;;;;2.63;2.25;;;41.20;16.50;;;30.09;25.70;95944.09;5031029;28;20463;-52
2022/07/06 17:27:29;;;;;;;3.88;2.38;;;39.70;17.30;;;29.53;26.88;95940.50;5012433;28;20029;-46
2022/07/06 17:29:58;;;;;;;3.15;2.15;;;38.30;18.20;;;29.15;28.01;95947.97;5055790;28;20454;-46
2022/07/06 17:32:24;;;;;;;4.40;2.72;;;37.10;19.00;;;28.73;27.99;95946.28;5044437;28;20025;-46
2022/07/06 17:34:49;;;;;;;2.78;2.40;;;36.00;19.70;;;28.40;29.16;95947.06;5050365;28;20039;-48
2022/07/06 17:37:15;;;;;;;3.72;2.38;;;35.20;20.50;;;28.12;29.88;95947.44;5049871;28;20034;-48
2022/07/06 17:39:42;;;;;;;4.20;2.50;;;34.40;21.20;;;27.68;30.39;95948.69;5032690;28;20471;-47
2022/07/06 17:42:09;;;;;;;3.22;2.55;;;33.80;21.80;;;27.38;31.16;95943.09;5050321;28;20073;-46
2022/07/06 17:44:36;;;;;;;5.78;2.72;;;33.20;22.40;;;27.09;31.85;95954.66;5037139;28;20474;-47
2022/07/06 17:47:03;;;;;;;7.50;2.30;;;32.60;22.90;;;26.88;32.85;95952.28;5030800;28;20025;-49
2022/07/06 17:49:30;;;;;;;3.88;2.80;;;32.20;23.60;;;26.53;32.99;95953.94;5035804;28;20394;-52
2022/07/06 17:51:56;;;;;;;4.00;2.55;;;31.70;24.00;;;26.27;33.62;95951.03;5050185;28;20039;-49
2022/07/06 17:54:21;;;;;;;5.10;2.30;;;31.40;24.50;;;26.11;33.73;95951.06;5050248;28;20028;-48
2022/07/06 17:56:47;;;;;;;3.30;2.72;;;31.00;24.80;;;25.95;34.27;95948.38;5049630;28;20032;-49
2022/07/06 17:59:15;;;;;;;4.65;2.55;;;30.70;25.20;;;25.70;35.24;95955.13;5065815;28;20035;-48
2022/07/06 18:01:41;;;;;;;2.00;1.90;;;30.50;25.70;;;25.42;35.81;95956.00;5048755;28;20063;-50
2022/07/06 18:04:07;;;;;;;4.03;2.13;;;30.20;26.00;;;25.30;36.32;95953.38;5047684;28;20063;-47
2022/07/06 18:06:33;;;;;;;3.33;2.15;;;30.00;26.40;;;25.17;36.86;95954.59;5049413;28;20341;-48
2022/07/06 18:09:01;;;;;;;3.35;2.20;;;29.90;26.80;;;25.13;37.36;95965.38;5037600;28;20417;-48
2022/07/06 18:11:27;;;;;;;5.03;2.25;;;29.70;27.10;;;24.98;37.47;95963.41;5012040;28;20048;-50
2022/07/06 18:14:01;;;;;;;3.65;2.47;;;29.70;27.50;;;24.76;37.75;95967.44;5028105;28;20053;-46
2022/07/06 18:16:29;;;;;;;3.97;2.13;;;29.40;27.70;;;24.65;38.32;95964.41;5028282;28;20459;-46
2022/07/06 18:18:55;;;;;;;3.10;2.22;;;29.30;27.90;;;24.57;38.65;95970.78;5028779;28;20060;-47
2022/07/06 18:21:21;;;;;;;2.92;2.17;;;29.20;28.40;;;24.53;38.55;95969.91;5050944;28;20473;-46
2022/07/06 18:23:50;;;;;;;4.20;2.42;;;29.10;28.30;;;24.50;38.84;95974.09;5047657;28;20050;-46
2022/07/06 18:26:25;;;;;;;2.88;2.42;;;29.00;28.50;;;24.38;38.93;95974.91;5048588;28;20035;-47
2022/07/06 18:28:54;;;;;;;2.35;1.92;;;29.00;28.70;;;24.29;38.86;95970.72;5047628;28;20475;-46
2022/07/06 18:31:20;;;;;;;2.78;2.42;;;28.90;28.90;;;24.28;39.48;95980.03;5048366;28;20031;-49
2022/07/06 18:33:46;;;;;;;3.05;2.20;;;28.80;29.10;;;24.17;40.03;95983.22;5031038;28;20028;-47
2022/07/06 18:36:12;;;;;;;2.88;1.75;;;28.70;29.30;;;24.17;39.97;95985.16;5048308;28;20448;-54
2022/07/06 18:38:38;;;;;;;4.65;2.50;;;28.60;29.50;;;23.93;41.31;95986.75;5030268;28;20044;-48
2022/07/06 18:41:09;;;;;;;2.30;1.83;;;28.40;29.80;;;23.82;41.38;95985.63;5047705;28;20028;-48
2022/07/06 18:43:41;;;;;;;3.13;1.77;;;28.30;30.20;;;23.59;41.86;95987.94;5047345;28;20021;-52
2022/07/06 18:46:07;;;;;;;3.13;1.80;;;28.10;30.30;;;23.43;42.29;95987.03;5048231;28;20440;-45
2022/07/06 18:48:33;;;;;;;4.18;2.10;;;27.80;30.60;;;23.21;42.27;95982.78;5063668;28;20082;-54
2022/07/06 18:51:01;;;;;;;3.38;2.00;;;27.60;31.00;;;22.85;42.45;95993.16;5042769;28;20453;-46
2022/07/06 18:53:27;;;;;;;2.00;1.80;;;27.40;31.30;;;22.63;43.93;95996.25;5028801;28;20502;-46
2022/07/06 18:55:55;;;;;;;4.28;2.13;;;27.10;31.60;;;22.55;44.11;96006.03;5010995;28;20397;-48
2022/07/06 18:58:23;;;;;;;3.20;1.77;;;26.90;32.10;;;22.38;43.72;96004.25;5028315;28;20029;-49
2022/07/06 19:00:49;;;;;;;2.88;2.10;;;26.70;32.30;;;22.00;44.57;96006.19;5028421;28;20029;-50
2022/07/06 19:03:15;;;;;;;2.35;1.80;;;26.40;32.60;;;21.95;44.89;96007.97;5043700;28;20032;-52
2022/07/06 19:05:43;;;;;;;4.75;2.03;;;26.30;32.90;;;21.83;45.91;96013.28;5026746;28;20252;-50
2022/07/06 19:08:12;;;;;;;4.50;1.98;;;26.00;33.30;;;21.54;46.62;96019.47;5046165;28;20414;-46
2022/07/06 19:10:47;;;;;;;2.75;2.10;;;25.80;33.80;;;21.45;47.13;96026.81;5030338;28;20031;-45
2022/07/06 19:13:16;;;;;;;2.58;1.70;;;25.60;34.10;;;21.34;47.73;96014.69;5042308;28;20403;-46
2022/07/06 19:15:42;;;;;;;2.20;1.85;;;25.50;34.60;;;21.24;47.86;96026.69;5052301;28;20372;-46
2022/07/06 19:18:08;;;;;;;5.00;1.88;;;25.20;34.90;;;21.04;48.87;96028.16;5050394;28;20047;-46
2022/07/06 19:20:34;;;;;;;5.20;1.85;;;25.00;35.30;;;20.95;48.64;96027.38;5051676;28;20497;-48
2022/07/06 19:23:03;;;;;;;2.55;2.03;;;24.90;35.80;;;20.82;49.21;96033.75;5034671;28;20048;-46
2022/07/06 19:25:29;;;;;;;2.20;1.90;;;24.70;36.30;;;20.66;50.02;96036.13;5034552;28;20043;-53
2022/07/06 19:27:57;;;;;;;2.05;1.58;;;24.50;36.60;;;20.45;50.61;96036.72;5050614;28;20032;-45
2022/07/06 19:30:31;;;;;;;3.45;2.10;;;24.30;37.00;;;20.34;51.10;96040.84;5038242;28;20033;-46
2022/07/06 19:32:57;;;;;;;2.80;1.98;;;24.20;37.60;;;20.20;51.74;96045.59;5030511;28;20051;-46
2022/07/06 19:35:26;;;;;;;2.95;2.00;;;24.00;37.90;;;20.08;52.63;96051.59;5032548;28;20530;-45
2022/07/06 19:37:52;;;;;;;2.95;1.98;;;23.90;38.30;;;19.92;53.49;96067.44;5030296;28;20060;-46
2022/07/06 19:40:21;;;;;;;2.95;1.95;;;23.70;38.80;;;19.77;53.77;96063.25;5034331;28;20489;-51
2022/07/06 19:42:47;;;;;;;4.25;2.10;;;23.50;39.20;;;19.60;53.85;96063.94;5030754;28;20436;-45
2022/07/06 19:45:18;;;;;;;2.40;1.63;;;23.40;39.50;;;19.46;54.71;96074.03;5031448;28;20069;-45
2022/07/06 19:47:44;;;;;;;2.80;2.13;;;23.30;39.90;;;19.34;55.55;96076.50;5046593;28;20033;-45
2022/07/06 19:50:13;;;;;;;3.08;2.42;;;23.20;40.30;;;19.23;55.53;96075.94;5032119;28;20031;-48
2022/07/06 19:52:38;;;;;;;2.55;2.10;;;23.00;40.80;;;19.11;55.95;96089.19;5040775;28;20036;-45
2022/07/06 19:55:08;;;;;;;2.97;2.20;;;22.90;41.00;;;19.01;56.19;96090.25;5050154;28;20535;-47
2022/07/06 19:57:34;;;;;;;4.70;2.10;;;22.80;41.40;;;18.94;56.18;96095.28;5051172;28;20062;-51
2022/07/06 19:59:59;;;;;;;4.72;1.90;;;22.70;41.60;;;18.88;55.83;96099.19;5033376;28;20028;-49
2022/07/06 20:02:28;;;;;;;5.05;2.30;;;22.60;41.70;;;18.82;55.60;96109.31;5051094;28;20020;-49
2022/07/06 20:04:54;;;;;;;3.95;2.20;;;22.50;41.90;;;18.78;55.68;96110.22;5051602;28;20524;-53
2022/07/06 20:07:21;;;;;;;2.75;2.00;;;22.50;42.00;;;18.71;55.73;96118.72;5051045;28;20378;-53
2022/07/06 20:09:46;;;;;;;5.10;2.00;;;22.40;42.10;;;18.68;55.33;96113.91;5050730;28;20107;-47
2022/07/06 20:12:15;;;;;;;2.70;1.83;;;22.40;42.30;;;18.69;55.05;96118.22;5050496;28;20111;-46
2022/07/06 20:14:56;;;;;;;2.00;1.90;;;22.40;42.40;;;18.69;55.44;96121.69;5049234;28;20032;-45
2022/07/06 20:17:24;;;;;;;2.97;2.03;;;22.30;42.60;;;18.67;55.45;96125.78;5039793;28;20548;-44
2022/07/06 20:19:52;;;;;;;4.55;2.10;;;22.30;42.50;;;18.63;55.12;96125.59;5050063;28;20028;-59
2022/07/06 20:22:27;;;;;;;3.38;1.98;;;22.30;42.50;;;18.61;55.36;96125.09;5051028;28;20126;-50
2022/07/06 20:24:55;;;;;;;3.83;1.95;;;22.20;42.70;;;18.57;55.60;96124.13;5032624;28;20097;-45
2022/07/06 20:27:25;;;;;;;3.42;1.60;;;22.20;42.80;;;18.53;55.61;96125.03;5041259;28;20024;-45
2022/07/06 20:29:51;;;;;;;4.38;1.70;;;22.20;43.00;;;18.48;55.89;96125.94;5044921;28;20033;-45
2022/07/06 20:32:20;;;;;;;3.60;1.95;;;22.10;42.90;;;18.41;56.58;96120.94;5030867;28;20412;-45
2022/07/06 20:34:49;;;;;;;2.85;1.58;;;22.10;43.20;;;18.35;56.51;96119.44;5031083;28;20039;-46
2022/07/06 20:37:15;;;;;;;5.82;2.33;;;22.00;43.20;;;18.31;56.30;96123.84;5029320;28;20037;-52
2022/07/06 20:39:41;;;;;;;2.33;1.63;;;22.00;43.30;;;18.19;55.99;96126.25;5029489;28;20513;-45
2022/07/06 20:42:06;;;;;;;2.75;1.90;;;21.90;43.30;;;18.18;55.83;96122.75;5053384;28;20012;-46
2022/07/06 20:44:36;;;;;;;4.78;2.13;;;21.90;43.40;;;18.13;55.88;96128.25;5048612;28;20032;-49
2022/07/06 20:47:02;;;;;;;8.82;1.88;;;21.80;43.40;;;18.08;55.71;96130.22;5032314;28;20027;-46
2022/07/06 20:49:30;;;;;;;4.80;1.90;;;21.80;43.30;;;18.01;54.93;96134.13;5050386;28;20055;-52
2022/07/06 20:51:56;;;;;;;2.90;1.50;;;21.70;43.90;;;17.95;54.72;96140.69;5050349;28;20378;-44
2022/07/06 20:54:24;;;;;;;3.20;1.70;;;21.70;43.20;;;17.90;54.10;96138.13;5030687;28;20025;-47
2022/07/06 20:56:50;;;;;;;6.65;1.50;;;21.60;43.20;;;17.87;53.99;96140.59;5028789;28;20033;-57
2022/07/06 20:59:19;;;;;;;3.13;1.42;;;21.60;43.10;;;17.84;53.31;96136.59;5030080;28;20063;-45
2022/07/06 21:01:45;;;;;;;3.78;1.40;;;21.60;43.10;;;17.83;53.30;96135.00;5059497;28;20070;-46
2022/07/06 21:04:20;;;;;;;3.88;1.50;;;21.50;42.90;;;17.79;52.91;96137.47;5050395;28;20024;-50
2022/07/06 21:06:48;;;;;;;5.38;1.20;;;21.50;42.90;;;17.75;52.29;96144.53;5050154;28;20028;-48
2022/07/06 21:09:17;;;;;;;2.95;1.20;;;21.40;42.70;;;17.75;52.20;96143.75;5048235;28;20113;-46
2022/07/06 21:11:49;;;;;;;1.20;1.08;;;21.40;42.60;;;17.73;51.80;96154.81;5051260;28;20020;-45
2022/07/06 21:14:23;;;;;;;1.92;1.20;;;21.40;42.60;;;17.72;51.78;96150.50;5050085;28;20547;-48
2022/07/06 21:16:49;;;;;;;2.63;1.10;;;21.40;42.50;;;17.69;50.86;96151.09;5050773;28;20024;-48
2022/07/06 21:19:15;;;;;;;2.40;1.17;;;21.30;42.20;;;17.66;50.71;96146.31;5066602;28;20032;-53
2022/07/06 21:21:53;;;;;;;2.80;1.50;;;21.30;42.00;;;17.60;50.54;96141.31;5049872;28;20097;-44
2022/07/06 21:24:27;;;;;;;5.47;1.20;;;21.30;42.00;;;17.58;51.19;96145.09;5049883;28;20030;-45
2022/07/06 21:26:53;;;;;;;3.97;1.30;;;21.20;41.80;;;17.51;50.34;96149.25;5049608;28;20028;-45
2022/07/06 21:29:22;;;;;;;2.58;1.20;;;21.20;41.70;;;17.48;50.48;96152.53;5050806;28;20063;-49
2022/07/06 21:31:53;;;;;;;2.20;1.30;;;21.10;41.70;;;17.43;49.88;96147.25;5050812;28;20081;-44
2022/07/06 21:34:21;;;;;;;3.28;1.10;;;21.10;41.60;;;17.35;49.86;96154.88;5049818;28;20028;-48
2022/07/06 21:36:47;;;;;;;1.92;1.08;;;21.00;41.50;;;17.29;50.38;96152.56;5031968;28;20020;-46
2022/07/06 21:39:28;;;;;;;1.50;1.10;;;21.00;41.40;;;17.23;50.95;96151.06;5047506;22;20546;-50
2022/07/06 21:41:54;;;;;;;2.83;1.15;;;20.90;41.60;;;17.17;51.14;96155.69;5028603;28;20059;-47
2022/07/06 21:44:20;;;;;;;4.18;1.40;;;20.90;41.50;;;17.09;51.53;96146.41;5026138;28;20538;-46
2022/07/06 21:46:48;;;;;;;3.95;1.10;;;20.80;41.60;;;17.05;51.59;96152.69;5010984;28;20041;-46
2022/07/06 21:49:14;;;;;;;1.27;1.00;;;20.80;41.70;;;16.98;52.15;96152.22;5025037;28;20032;-46
2022/07/06 21:51:40;;;;;;;2.30;0.95;;;20.70;41.70;;;16.94;53.89;96154.69;5030755;28;20025;-48
2022/07/06 21:54:06;;;;;;;4.65;1.13;;;20.60;42.00;;;16.84;53.44;96160.22;5030376;28;20104;-49
2022/07/06 21:56:32;;;;;;;1.70;1.38;;;20.60;42.30;;;16.77;53.48;96159.81;5015595;28;20024;-48
2022/07/06 21:58:58;;;;;;;3.55;1.23;;;20.50;42.40;;;16.66;54.02;96159.88;5012197;28;20028;-47
2022/07/06 22:01:30;;;;;;;2.67;1.15;;;20.40;42.50;;;16.57;54.16;96160.81;4980651;28;20025;-49
2022/07/06 22:04:06;;;;;;;2.05;1.30;;;20.30;42.80;;;16.47;54.47;96160.94;5012605;28;20021;-49
2022/07/06 22:06:40;;;;;;;1.90;1.20;;;20.20;43.50;;;16.36;55.16;96157.59;5012776;28;20040;-47
2022/07/06 22:09:06;;;;;;;1.58;1.25;;;20.10;43.10;;;16.26;56.89;96152.31;5029636;28;20040;-48
2022/07/06 22:11:32;;;;;;;2.28;1.17;;;20.00;43.30;;;16.15;56.88;96155.13;5030304;28;20024;-46
2022/07/06 22:13:58;;;;;;;3.17;1.25;;;19.90;43.60;;;16.05;57.72;96157.13;5025289;28;20024;-48
2022/07/06 22:16:26;;;;;;;6.05;2.25;;;19.80;43.80;;;15.93;57.45;96155.63;5012742;28;20457;-47
2022/07/06 22:18:57;;;;;;;2.00;1.20;;;19.80;44.10;;;15.82;57.71;96151.44;5029953;28;20044;-49
2022/07/06 22:21:24;;;;;;;3.28;1.10;;;19.60;44.30;;;15.70;59.00;96151.84;5030673;28;20470;-49
2022/07/06 22:23:51;;;;;;;6.30;1.60;;;19.50;44.50;;;15.60;58.98;96153.75;5012206;28;20017;-45
2022/07/06 22:26:20;;;;;;;5.78;1.30;;;19.40;44.80;;;15.48;59.37;96149.59;5012752;28;20017;-46
2022/07/06 22:28:48;;;;;;;3.75;1.40;;;19.30;45.20;;;15.34;59.50;96143.25;5012419;28;20111;-46
